Hoorn, Netherlands
Current Conditions -  °F | °C
As of 11:33 AM on Saturday 22 Nov 2014 (Local Time) from EHKD Reporting Station
Haze Haze  
Wind Chill: 39°   Ceiling: 10000
Heat Index: 45°   Visibility: 4mi
Dew Point: 43°   Wind: 10mph
Humidity: 93%   Direction: 150°SSE
Pressure: 30"   Gusts: NA
Location:  52.63°N, 5.07°E
Report Text: EHKD 221033Z AUTO 15009KT 7000 BR FEW094 BKN100 07/06 Q1016 WHT
Loading
Personal Weather Stations






























Interactive Weather Map New forecast layout! Learn more

10-Day Weather Forecast

Advertisements
Track Severe Weather on mobile